Time;durP1;ratioP1;P1;durP2;ratioP2;P2;SDS_P1;SDS_P2;PMS_P1;PMS_P2;Temp;Humidity;BMP_temperature;BMP_pressure;BME280_temperature;BME280_humidity;BME280_pressure;Samples;Min_cycle;Max_cycle;Signal;HPM_P1;HPM_P2
2021/12/21 00:00:37;;;;;;;10.75;2.10;;;;;;;;;;4994636;28;20071;-58
2021/12/21 00:03:04;;;;;;;10.85;2.22;;;;;;;;;;5002492;28;20364;-58
2021/12/21 00:05:32;;;;;;;19.25;3.13;;;;;;;;;;5002498;28;20065;-53
2021/12/21 00:08:00;;;;;;;17.20;2.10;;;;;;;;;;5003100;28;20414;-57
2021/12/21 00:10:29;;;;;;;9.10;1.70;;;;;;;;;;5004418;28;20081;-54
2021/12/21 00:21:20;;;;;;;10.48;1.83;;;;;;;;;;5007006;28;20030;-55
2021/12/21 00:23:50;;;;;;;8.18;1.63;;;;;;;;;;4995391;28;20025;-50
2021/12/21 00:26:22;;;;;;;9.07;1.40;;;;;;;;;;5003541;28;20033;-56
2021/12/21 00:28:57;;;;;;;2.90;1.20;;;;;;;;;;5001859;28;20101;-50
2021/12/21 00:31:25;;;;;;;6.57;1.63;;;;;;;;;;5002536;28;20132;-51
2021/12/21 00:33:52;;;;;;;13.90;2.30;;;;;;;;;;5003283;28;20045;-56
2021/12/21 00:36:20;;;;;;;3.42;1.05;;;;;;;;;;4996177;28;20026;-52
2021/12/21 00:38:48;;;;;;;13.63;2.15;;;;;;;;;;5005260;28;20046;-56
2021/12/21 00:41:15;;;;;;;5.05;1.05;;;;;;;;;;5003667;28;20018;-57
2021/12/21 00:43:43;;;;;;;6.55;1.70;;;;;;;;;;5003340;28;20037;-56
2021/12/21 00:46:10;;;;;;;5.45;1.38;;;;;;;;;;5001478;28;20065;-54
2021/12/21 00:48:41;;;;;;;8.02;1.48;;;;;;;;;;5002015;28;20125;-52
2021/12/21 00:51:08;;;;;;;5.85;1.67;;;;;;;;;;4994645;28;20707;-56
2021/12/21 00:53:37;;;;;;;8.57;1.45;;;;;;;;;;5002950;28;20029;-57
2021/12/21 00:56:04;;;;;;;5.90;1.58;;;;;;;;;;5001031;28;20097;-52
2021/12/21 00:58:31;;;;;;;10.00;1.70;;;;;;;;;;5000698;28;20072;-57
2021/12/21 01:01:03;;;;;;;9.73;2.03;;;;;;;;;;5008199;28;20041;-56
2021/12/21 01:03:30;;;;;;;8.07;2.03;;;;;;;;;;5003289;28;20108;-57
2021/12/21 01:06:07;;;;;;;8.98;2.28;;;;;;;;;;5006574;28;20033;-56
2021/12/21 01:08:45;;;;;;;15.52;2.65;;;;;;;;;;5003245;28;20032;-58
2021/12/21 01:11:15;;;;;;;3.72;1.10;;;;;;;;;;5003181;28;20022;-60
2021/12/21 01:13:53;;;;;;;8.32;2.53;;;;;;;;;;5003680;28;20370;-59
2021/12/21 01:16:40;;;;;;;2.95;1.30;;;;;;;;;;4995846;28;20033;-59
2021/12/21 01:19:16;;;;;;;4.95;1.40;;;;;;;;;;4999495;28;20034;-57
2021/12/21 01:21:57;;;;;;;6.85;1.25;;;;;;;;;;4997132;28;20026;-54
2021/12/21 01:27:54;;;;;;;3.60;1.17;;;;;;;;;;5006651;28;20100;-52
2021/12/21 01:30:20;;;;;;;4.75;1.20;;;;;;;;;;5005685;28;20074;-58
2021/12/21 01:35:29;;;;;;;9.70;1.27;;;;;;;;;;5007777;28;20061;-57
2021/12/21 01:41:25;;;;;;;4.20;0.80;;;;;;;;;;5007463;28;20063;-57
2021/12/21 01:51:16;;;;;;;7.05;0.82;;;;;;;;;;5005843;28;20099;-56
2021/12/21 01:53:43;;;;;;;4.88;1.05;;;;;;;;;;5000473;28;20022;-57
2021/12/21 01:56:10;;;;;;;2.25;0.57;;;;;;;;;;4999177;28;20474;-57
2021/12/21 01:58:39;;;;;;;4.32;0.70;;;;;;;;;;5000080;28;20084;-57
2021/12/21 02:01:07;;;;;;;2.35;0.80;;;;;;;;;;4993379;28;20169;-57
2021/12/21 02:03:35;;;;;;;7.05;1.30;;;;;;;;;;5007611;28;20539;-58
2021/12/21 02:06:02;;;;;;;4.70;0.90;;;;;;;;;;5002864;28;20057;-57
2021/12/21 02:08:29;;;;;;;4.53;1.10;;;;;;;;;;5000335;28;20026;-58
2021/12/21 02:11:04;;;;;;;2.92;0.73;;;;;;;;;;5001294;28;20022;-58
2021/12/21 02:13:35;;;;;;;2.92;1.30;;;;;;;;;;4999395;28;20021;-55
2021/12/21 02:16:02;;;;;;;2.80;1.15;;;;;;;;;;5002515;28;20040;-56
2021/12/21 02:23:52;;;;;;;4.32;0.90;;;;;;;;;;5007053;28;20113;-55
2021/12/21 02:27:05;;;;;;;4.10;1.20;;;;;;;;;;5008301;28;20064;-56
2021/12/21 02:29:45;;;;;;;2.50;0.88;;;;;;;;;;5002204;28;20129;-56
2021/12/21 02:32:06;;;;;;;1.70;0.65;;;;;;;;;;5001745;28;20040;-55
2021/12/21 02:34:33;;;;;;;2.25;1.00;;;;;;;;;;5007246;28;20441;-54
2021/12/21 02:37:00;;;;;;;3.17;0.90;;;;;;;;;;5003445;28;20425;-55
2021/12/21 02:39:28;;;;;;;2.67;1.05;;;;;;;;;;4996478;28;20091;-58
2021/12/21 02:41:55;;;;;;;3.30;0.63;;;;;;;;;;5010332;28;20022;-59
2021/12/21 02:44:22;;;;;;;3.40;0.80;;;;;;;;;;5009793;28;20088;-58
2021/12/21 02:46:50;;;;;;;1.40;0.90;;;;;;;;;;4997735;28;20104;-53
2021/12/21 02:49:20;;;;;;;2.03;0.70;;;;;;;;;;4996214;28;20674;-57
2021/12/21 02:51:51;;;;;;;5.75;0.80;;;;;;;;;;5001139;28;20118;-49
2021/12/21 02:54:23;;;;;;;3.28;0.73;;;;;;;;;;4992712;28;20490;-49
2021/12/21 02:56:51;;;;;;;3.58;0.98;;;;;;;;;;5005581;28;20044;-47
2021/12/21 02:59:21;;;;;;;2.97;0.70;;;;;;;;;;4982208;28;20039;-51
2021/12/21 03:01:55;;;;;;;6.75;0.90;;;;;;;;;;4998564;28;20053;-56
2021/12/21 03:04:23;;;;;;;7.13;0.60;;;;;;;;;;5001347;28;20036;-46
2021/12/21 03:10:00;;;;;;;4.20;0.60;;;;;;;;;;4952205;28;20102;-46
2021/12/21 03:14:58;;;;;;;4.45;0.60;;;;;;;;;;4990816;28;20025;-50
2021/12/21 03:17:25;;;;;;;1.85;0.52;;;;;;;;;;5012092;28;20109;-50
2021/12/21 03:19:52;;;;;;;2.97;0.50;;;;;;;;;;5007267;28;20053;-51
2021/12/21 03:22:19;;;;;;;3.20;0.50;;;;;;;;;;5010895;28;20026;-51
2021/12/21 03:24:46;;;;;;;3.72;0.47;;;;;;;;;;5010872;28;20505;-50
2021/12/21 03:27:14;;;;;;;1.65;0.40;;;;;;;;;;5009553;28;20496;-51
2021/12/21 03:29:41;;;;;;;1.52;0.52;;;;;;;;;;5010139;28;20425;-49
2021/12/21 03:32:08;;;;;;;0.95;0.25;;;;;;;;;;5011759;28;20022;-50
2021/12/21 03:34:35;;;;;;;1.38;0.47;;;;;;;;;;5013652;28;20033;-50
2021/12/21 03:37:04;;;;;;;3.03;0.70;;;;;;;;;;5000100;28;20035;-51
2021/12/21 03:39:31;;;;;;;8.75;1.23;;;;;;;;;;4994264;28;20050;-53
2021/12/21 03:42:00;;;;;;;1.33;0.52;;;;;;;;;;4993793;28;20133;-53
2021/12/21 03:44:27;;;;;;;1.73;0.60;;;;;;;;;;4994508;28;20034;-53
2021/12/21 03:46:56;;;;;;;1.75;0.40;;;;;;;;;;4993750;28;20033;-52
2021/12/21 03:51:54;;;;;;;1.55;0.40;;;;;;;;;;4994301;28;20019;-50
2021/12/21 03:54:21;;;;;;;2.05;0.40;;;;;;;;;;4997320;28;20026;-49
2021/12/21 03:56:50;;;;;;;1.27;0.40;;;;;;;;;;4997849;28;20026;-51
2021/12/21 03:59:18;;;;;;;1.98;0.52;;;;;;;;;;4992308;28;20097;-51
2021/12/21 04:01:45;;;;;;;2.15;0.70;;;;;;;;;;4993692;28;20022;-51
2021/12/21 04:04:12;;;;;;;1.08;0.40;;;;;;;;;;4994560;28;20371;-51
2021/12/21 04:06:40;;;;;;;0.90;0.40;;;;;;;;;;4994287;28;20022;-52
2021/12/21 04:09:08;;;;;;;4.25;0.50;;;;;;;;;;4993453;28;20698;-52
2021/12/21 04:11:35;;;;;;;4.40;0.60;;;;;;;;;;4994438;28;20076;-53
2021/12/21 04:14:02;;;;;;;2.67;0.60;;;;;;;;;;4993037;28;20034;-51
2021/12/21 04:16:29;;;;;;;3.92;0.60;;;;;;;;;;5010909;28;20022;-46
2021/12/21 04:18:57;;;;;;;2.63;0.32;;;;;;;;;;5013178;28;20038;-50
2021/12/21 04:21:24;;;;;;;8.50;1.65;;;;;;;;;;5012844;28;20052;-46
2021/12/21 04:23:51;;;;;;;3.92;0.55;;;;;;;;;;5027903;28;20032;-46
2021/12/21 04:26:19;;;;;;;1.15;0.47;;;;;;;;;;5012351;28;20025;-46
2021/12/21 04:28:47;;;;;;;2.53;0.47;;;;;;;;;;5012349;28;20057;-52
2021/12/21 04:31:14;;;;;;;1.60;0.50;;;;;;;;;;5012526;28;20018;-47
2021/12/21 04:33:45;;;;;;;2.60;0.50;;;;;;;;;;5013383;28;20103;-54
2021/12/21 04:36:14;;;;;;;1.25;0.50;;;;;;;;;;5012302;28;20033;-49
2021/12/21 04:38:45;;;;;;;0.82;0.40;;;;;;;;;;5012695;28;20049;-46
2021/12/21 04:41:16;;;;;;;2.25;0.80;;;;;;;;;;5011954;28;20026;-50
2021/12/21 04:43:43;;;;;;;0.80;0.30;;;;;;;;;;5013063;28;20144;-51
2021/12/21 04:46:11;;;;;;;1.30;0.43;;;;;;;;;;5011986;28;20044;-50
2021/12/21 04:48:38;;;;;;;1.95;0.40;;;;;;;;;;5011877;28;20046;-48
2021/12/21 04:51:05;;;;;;;2.90;0.60;;;;;;;;;;5012609;28;20121;-53
2021/12/21 04:53:32;;;;;;;1.75;0.50;;;;;;;;;;5012729;28;20192;-48
2021/12/21 04:55:59;;;;;;;7.10;1.30;;;;;;;;;;5027527;28;20568;-49
2021/12/21 04:58:27;;;;;;;1.73;0.77;;;;;;;;;;5011663;28;20169;-47
2021/12/21 05:00:54;;;;;;;2.05;0.50;;;;;;;;;;5012808;28;20022;-50
2021/12/21 05:03:21;;;;;;;3.97;0.88;;;;;;;;;;5012154;28;20072;-46
2021/12/21 05:05:48;;;;;;;2.75;0.93;;;;;;;;;;5012706;28;20046;-49
2021/12/21 05:08:24;;;;;;;1.95;0.73;;;;;;;;;;5011680;28;20108;-50
2021/12/21 05:10:55;;;;;;;4.15;0.55;;;;;;;;;;5011983;28;20026;-52
2021/12/21 05:13:27;;;;;;;2.10;0.77;;;;;;;;;;5011965;28;20037;-49
2021/12/21 05:15:54;;;;;;;1.57;0.70;;;;;;;;;;5012720;28;20388;-50
2021/12/21 05:18:21;;;;;;;1.85;0.90;;;;;;;;;;5011576;28;20034;-48
2021/12/21 05:20:48;;;;;;;4.43;0.82;;;;;;;;;;5011765;28;20032;-52
2021/12/21 05:23:16;;;;;;;1.02;0.43;;;;;;;;;;5012094;28;20440;-46
2021/12/21 05:25:43;;;;;;;3.00;0.60;;;;;;;;;;5012017;28;20022;-50
2021/12/21 05:28:11;;;;;;;4.07;0.63;;;;;;;;;;5011221;28;20030;-49
2021/12/21 05:30:39;;;;;;;2.63;0.60;;;;;;;;;;5012145;28;20034;-48
2021/12/21 05:33:06;;;;;;;3.60;0.57;;;;;;;;;;5011774;28;20025;-49
2021/12/21 05:35:34;;;;;;;2.35;0.57;;;;;;;;;;5012035;28;20553;-46
2021/12/21 05:38:05;;;;;;;2.35;0.50;;;;;;;;;;5011527;28;20026;-49
2021/12/21 05:40:35;;;;;;;2.13;0.60;;;;;;;;;;5011765;28;20104;-48
2021/12/21 05:43:03;;;;;;;1.45;0.60;;;;;;;;;;5011668;28;20066;-48
2021/12/21 05:45:30;;;;;;;1.50;0.60;;;;;;;;;;5011317;28;20022;-47
2021/12/21 05:47:57;;;;;;;1.30;0.50;;;;;;;;;;5011261;28;20121;-46
2021/12/21 05:50:24;;;;;;;3.55;0.50;;;;;;;;;;5011287;28;20062;-49
2021/12/21 05:52:51;;;;;;;2.30;0.50;;;;;;;;;;5010289;28;20030;-47
2021/12/21 05:55:20;;;;;;;1.40;0.40;;;;;;;;;;5009164;28;20026;-46
2021/12/21 05:57:47;;;;;;;2.15;0.40;;;;;;;;;;5009803;28;20026;-48
2021/12/21 06:00:16;;;;;;;1.55;0.32;;;;;;;;;;5009857;28;20038;-46
2021/12/21 06:02:43;;;;;;;3.60;0.77;;;;;;;;;;5010139;28;20913;-48
2021/12/21 06:05:10;;;;;;;4.55;0.60;;;;;;;;;;5009680;28;20057;-46
2021/12/21 06:07:37;;;;;;;1.52;0.50;;;;;;;;;;5009989;28;20446;-49
2021/12/21 06:10:20;;;;;;;0.95;0.40;;;;;;;;;;5009281;28;20029;-48
2021/12/21 06:15:39;;;;;;;1.38;0.57;;;;;;;;;;5009797;28;20124;-46
2021/12/21 06:26:14;;;;;;;1.02;0.50;;;;;;;;;;5009208;28;20022;-52
2021/12/21 06:28:42;;;;;;;1.70;0.60;;;;;;;;;;5009302;28;20030;-53
2021/12/21 06:31:09;;;;;;;1.33;0.70;;;;;;;;;;5009091;28;20018;-49
2021/12/21 06:33:36;;;;;;;1.95;0.60;;;;;;;;;;5009416;28;20076;-49
2021/12/21 06:36:04;;;;;;;2.08;0.70;;;;;;;;;;5009399;28;20559;-47
2021/12/21 06:38:31;;;;;;;1.80;0.70;;;;;;;;;;5009326;28;20054;-49
2021/12/21 06:40:58;;;;;;;1.33;0.60;;;;;;;;;;5023722;28;20109;-52
2021/12/21 06:43:25;;;;;;;0.65;0.40;;;;;;;;;;5009429;28;20358;-54
2021/12/21 06:53:38;;;;;;;1.85;0.63;;;;;;;;;;5009389;28;20030;-46
2021/12/21 06:56:06;;;;;;;2.33;0.80;;;;;;;;;;5008927;28;20083;-48
2021/12/21 06:58:33;;;;;;;1.02;0.60;;;;;;;;;;5009070;28;20485;-50
2021/12/21 07:01:00;;;;;;;2.90;0.90;;;;;;;;;;5024128;28;20034;-51
2021/12/21 07:03:27;;;;;;;1.83;0.55;;;;;;;;;;5009277;28;20022;-51
2021/12/21 07:05:55;;;;;;;3.47;0.90;;;;;;;;;;5011874;28;20033;-48
2021/12/21 07:08:27;;;;;;;1.85;0.77;;;;;;;;;;5013092;28;20567;-50
2021/12/21 07:11:13;;;;;;;2.45;0.88;;;;;;;;;;5012929;28;20030;-51
2021/12/21 07:19:10;;;;;;;2.05;0.80;;;;;;;;;;5012846;28;20096;-46
2021/12/21 07:21:38;;;;;;;2.60;0.90;;;;;;;;;;5012560;28;20416;-46
2021/12/21 07:24:05;;;;;;;4.03;1.08;;;;;;;;;;5012633;28;20037;-48
2021/12/21 07:26:32;;;;;;;1.45;0.70;;;;;;;;;;5012740;28;20025;-48
2021/12/21 07:28:59;;;;;;;2.72;1.33;;;;;;;;;;5012560;28;20022;-48
2021/12/21 07:31:26;;;;;;;3.65;1.15;;;;;;;;;;5012438;28;20052;-50
2021/12/21 07:33:53;;;;;;;1.85;0.80;;;;;;;;;;5012192;28;20030;-46
2021/12/21 07:36:20;;;;;;;3.53;0.80;;;;;;;;;;5012887;28;20488;-48
2021/12/21 07:38:48;;;;;;;5.53;1.40;;;;;;;;;;5012247;28;20034;-48
2021/12/21 07:41:15;;;;;;;3.05;0.95;;;;;;;;;;5012779;28;20819;-46
2021/12/21 07:43:42;;;;;;;3.10;0.90;;;;;;;;;;5012353;28;20026;-51
2021/12/21 07:46:09;;;;;;;3.03;0.82;;;;;;;;;;5012444;28;20025;-47
2021/12/21 07:48:37;;;;;;;2.60;1.27;;;;;;;;;;5012128;28;20046;-48
2021/12/21 07:51:06;;;;;;;1.73;0.85;;;;;;;;;;5011921;28;20022;-47
2021/12/21 07:53:33;;;;;;;4.10;1.00;;;;;;;;;;5012007;28;20025;-49
2021/12/21 07:56:02;;;;;;;2.35;0.82;;;;;;;;;;5012294;28;20532;-47
2021/12/21 07:58:33;;;;;;;1.85;1.02;;;;;;;;;;5011886;28;20025;-51
2021/12/21 08:01:00;;;;;;;1.73;0.82;;;;;;;;;;5011745;28;20033;-48
2021/12/21 08:03:28;;;;;;;2.25;0.90;;;;;;;;;;5011919;28;20671;-48
2021/12/21 08:05:57;;;;;;;2.13;0.85;;;;;;;;;;5011834;28;20463;-47
2021/12/21 08:08:27;;;;;;;4.30;1.42;;;;;;;;;;5012504;28;20033;-49
2021/12/21 08:11:08;;;;;;;3.17;1.00;;;;;;;;;;5011328;28;20022;-48
2021/12/21 08:13:36;;;;;;;1.55;0.70;;;;;;;;;;5011658;28;20034;-49
2021/12/21 08:16:03;;;;;;;2.55;1.00;;;;;;;;;;5011552;28;20133;-47
2021/12/21 08:18:30;;;;;;;3.92;0.90;;;;;;;;;;5012027;28;20123;-47
2021/12/21 08:20:57;;;;;;;3.45;1.38;;;;;;;;;;5026503;28;20037;-47
2021/12/21 08:23:25;;;;;;;1.88;0.85;;;;;;;;;;5010943;28;20030;-50
2021/12/21 08:25:54;;;;;;;2.92;1.00;;;;;;;;;;5011390;28;20041;-46
2021/12/21 08:28:21;;;;;;;2.47;1.17;;;;;;;;;;5011932;28;20033;-48
2021/12/21 08:30:49;;;;;;;1.98;0.90;;;;;;;;;;5026038;28;20033;-49
2021/12/21 08:33:16;;;;;;;5.60;1.05;;;;;;;;;;5011469;28;20022;-49
2021/12/21 08:35:44;;;;;;;2.00;0.98;;;;;;;;;;5011679;28;20026;-51
2021/12/21 08:38:14;;;;;;;2.53;1.00;;;;;;;;;;5011623;28;20049;-48
2021/12/21 08:40:43;;;;;;;2.97;1.20;;;;;;;;;;5011112;28;20497;-47
2021/12/21 08:43:12;;;;;;;3.60;1.20;;;;;;;;;;5011281;28;20033;-47
2021/12/21 08:45:40;;;;;;;5.07;1.45;;;;;;;;;;5010696;28;20183;-51
2021/12/21 08:48:08;;;;;;;3.22;1.17;;;;;;;;;;5011443;28;20034;-47
2021/12/21 08:50:35;;;;;;;2.97;1.23;;;;;;;;;;5011324;28;20018;-47
2021/12/21 08:53:02;;;;;;;5.93;1.15;;;;;;;;;;5010480;28;20034;-51
2021/12/21 08:55:29;;;;;;;1.13;0.80;;;;;;;;;;5011318;28;20017;-51
2021/12/21 08:57:56;;;;;;;3.88;1.10;;;;;;;;;;5010860;28;20603;-48
2021/12/21 09:00:23;;;;;;;3.22;1.10;;;;;;;;;;5011057;28;20115;-51
2021/12/21 09:02:50;;;;;;;2.05;1.10;;;;;;;;;;5010136;28;20083;-53
2021/12/21 09:05:21;;;;;;;1.75;0.90;;;;;;;;;;5011187;28;20058;-49
2021/12/21 09:07:49;;;;;;;3.92;1.30;;;;;;;;;;5010969;28;20053;-53
2021/12/21 09:10:18;;;;;;;2.97;1.13;;;;;;;;;;5010536;28;20022;-50
2021/12/21 09:12:45;;;;;;;3.70;1.25;;;;;;;;;;5010007;28;20080;-49
2021/12/21 09:15:14;;;;;;;11.00;1.48;;;;;;;;;;5011044;28;20127;-50
2021/12/21 09:17:42;;;;;;;4.63;1.38;;;;;;;;;;5010266;28;20125;-52
2021/12/21 09:20:09;;;;;;;2.38;1.20;;;;;;;;;;5010666;28;20485;-52
2021/12/21 09:22:39;;;;;;;3.17;1.30;;;;;;;;;;5010216;28;20026;-51
2021/12/21 09:25:07;;;;;;;5.25;1.23;;;;;;;;;;5010748;28;20022;-52
2021/12/21 09:27:34;;;;;;;2.90;1.00;;;;;;;;;;5010275;28;20026;-46
2021/12/21 09:30:01;;;;;;;5.15;1.33;;;;;;;;;;5010576;28;20026;-48
2021/12/21 09:32:28;;;;;;;2.30;1.23;;;;;;;;;;5009957;28;20109;-47
2021/12/21 09:34:55;;;;;;;3.40;1.20;;;;;;;;;;5010442;28;20432;-49
2021/12/21 09:37:22;;;;;;;2.95;1.20;;;;;;;;;;5010378;28;20029;-46
2021/12/21 09:39:51;;;;;;;3.53;1.50;;;;;;;;;;5010326;28;20033;-52
2021/12/21 09:42:20;;;;;;;4.35;1.20;;;;;;;;;;5009793;28;20033;-50
2021/12/21 09:44:48;;;;;;;4.38;1.70;;;;;;;;;;5009734;28;20072;-48
2021/12/21 09:47:15;;;;;;;16.10;1.70;;;;;;;;;;5010752;28;20030;-47
2021/12/21 09:49:43;;;;;;;11.48;2.22;;;;;;;;;;5009503;28;20046;-51
2021/12/21 09:52:11;;;;;;;5.78;1.90;;;;;;;;;;5024951;28;20022;-48
2021/12/21 09:54:39;;;;;;;5.25;1.88;;;;;;;;;;5009513;28;20029;-47
2021/12/21 09:57:07;;;;;;;6.43;1.88;;;;;;;;;;5010127;28;20052;-50
2021/12/21 09:59:34;;;;;;;4.35;2.03;;;;;;;;;;5009410;28;20425;-48
2021/12/21 10:02:02;;;;;;;9.32;2.45;;;;;;;;;;5010123;28;20153;-46
2021/12/21 10:04:29;;;;;;;3.70;1.42;;;;;;;;;;5008967;28;20481;-48
2021/12/21 10:06:58;;;;;;;7.20;1.70;;;;;;;;;;5010181;28;20100;-47
2021/12/21 10:09:33;;;;;;;4.95;1.60;;;;;;;;;;5009434;28;20778;-47
2021/12/21 10:12:00;;;;;;;4.43;1.75;;;;;;;;;;5009181;28;20044;-48
2021/12/21 10:14:27;;;;;;;4.25;1.65;;;;;;;;;;5009603;28;20463;-47
2021/12/21 10:17:05;;;;;;;6.90;1.85;;;;;;;;;;5009684;28;20062;-47
2021/12/21 10:19:33;;;;;;;5.85;1.63;;;;;;;;;;5009433;28;20037;-46
2021/12/21 10:22:13;;;;;;;5.80;1.50;;;;;;;;;;5009758;28;20416;-48
2021/12/21 10:24:48;;;;;;;3.22;1.40;;;;;;;;;;5008929;28;20030;-53
2021/12/21 10:27:18;;;;;;;9.05;1.80;;;;;;;;;;5009566;28;20057;-53
2021/12/21 10:29:49;;;;;;;3.10;1.05;;;;;;;;;;5006366;28;20026;-51
2021/12/21 10:32:27;;;;;;;6.35;1.40;;;;;;;;;;5007721;28;20025;-46
2021/12/21 10:34:55;;;;;;;4.78;1.52;;;;;;;;;;5009064;28;20568;-47
2021/12/21 10:37:25;;;;;;;5.72;1.40;;;;;;;;;;5008795;28;20385;-48
2021/12/21 10:40:02;;;;;;;1.92;1.10;;;;;;;;;;5007626;28;20034;-47
2021/12/21 10:42:29;;;;;;;2.67;0.95;;;;;;;;;;4999138;28;20116;-49
2021/12/21 10:45:05;;;;;;;7.15;1.27;;;;;;;;;;4996633;28;20026;-49
2021/12/21 10:47:34;;;;;;;4.35;1.08;;;;;;;;;;5007035;28;20034;-47
2021/12/21 10:50:01;;;;;;;9.98;1.85;;;;;;;;;;5008114;28;20081;-51
2021/12/21 10:52:28;;;;;;;7.80;0.90;;;;;;;;;;5007730;28;20021;-48
2021/12/21 10:54:55;;;;;;;28.80;2.47;;;;;;;;;;5009523;28;20029;-48
2021/12/21 10:57:26;;;;;;;8.25;1.40;;;;;;;;;;5008461;28;20030;-50
2021/12/21 10:59:55;;;;;;;7.20;1.33;;;;;;;;;;5009628;28;20061;-51
2021/12/21 11:02:26;;;;;;;10.05;1.63;;;;;;;;;;5008748;28;20482;-45
2021/12/21 11:05:01;;;;;;;39.17;2.88;;;;;;;;;;5008515;28;20033;-45
2021/12/21 11:10:01;;;;;;;6.40;1.67;;;;;;;;;;4998746;28;20085;-45
2021/12/21 11:12:29;;;;;;;4.32;1.10;;;;;;;;;;5006307;28;20037;-48
2021/12/21 11:15:00;;;;;;;7.60;1.13;;;;;;;;;;5008718;28;20054;-57
2021/12/21 11:17:27;;;;;;;3.88;0.90;;;;;;;;;;5008306;28;20814;-54
2021/12/21 11:19:54;;;;;;;4.05;1.10;;;;;;;;;;5003670;28;20634;-58
2021/12/21 11:22:24;;;;;;;2.75;0.80;;;;;;;;;;4989251;28;20050;-52
2021/12/21 11:24:52;;;;;;;21.30;2.25;;;;;;;;;;4988253;28;20129;-55
2021/12/21 11:27:21;;;;;;;11.77;1.30;;;;;;;;;;4972273;28;20046;-55
2021/12/21 11:29:48;;;;;;;5.63;1.40;;;;;;;;;;4989967;28;20026;-54
2021/12/21 11:32:15;;;;;;;3.05;1.15;;;;;;;;;;4989355;28;20386;-56
2021/12/21 11:37:31;;;;;;;6.43;1.70;;;;;;;;;;4990164;28;20613;-56
2021/12/21 11:39:58;;;;;;;4.63;1.98;;;;;;;;;;4989449;28;20054;-48
2021/12/21 11:42:28;;;;;;;3.80;1.20;;;;;;;;;;4989393;28;20030;-55
2021/12/21 11:45:02;;;;;;;7.90;2.15;;;;;;;;;;4989464;28;20652;-54
2021/12/21 11:47:35;;;;;;;6.30;3.03;;;;;;;;;;4989297;28;20176;-55
2021/12/21 11:50:05;;;;;;;16.65;2.50;;;;;;;;;;4989479;28;20050;-54
2021/12/21 11:52:42;;;;;;;3.45;1.52;;;;;;;;;;4992810;28;20030;-53
2021/12/21 11:55:10;;;;;;;36.17;5.55;;;;;;;;;;4992109;28;20588;-52
2021/12/21 11:57:38;;;;;;;21.80;5.43;;;;;;;;;;4993519;28;20034;-55
2021/12/21 12:00:17;;;;;;;7.32;1.67;;;;;;;;;;4992666;28;20031;-52
2021/12/21 12:02:46;;;;;;;5.57;1.55;;;;;;;;;;4992713;28;20113;-48
2021/12/21 12:05:25;;;;;;;2.67;1.08;;;;;;;;;;4992940;28;20490;-49
2021/12/21 12:08:06;;;;;;;14.63;2.30;;;;;;;;;;4991012;28;20160;-50
2021/12/21 12:10:34;;;;;;;15.80;1.98;;;;;;;;;;4993101;28;20541;-52
2021/12/21 12:13:30;;;;;;;2.13;0.93;;;;;;;;;;4992676;28;20018;-52
2021/12/21 12:15:58;;;;;;;3.00;1.00;;;;;;;;;;4987224;28;20064;-53
2021/12/21 12:18:28;;;;;;;4.35;1.17;;;;;;;;;;5006150;28;20022;-54
2021/12/21 12:20:56;;;;;;;14.77;1.90;;;;;;;;;;5011874;28;20057;-53
2021/12/21 12:23:23;;;;;;;4.65;1.27;;;;;;;;;;5026125;28;20088;-50
2021/12/21 12:25:57;;;;;;;2.35;0.90;;;;;;;;;;5011840;28;20071;-51
2021/12/21 12:28:35;;;;;;;3.50;1.05;;;;;;;;;;5010645;28;20060;-55
2021/12/21 12:31:02;;;;;;;5.55;1.00;;;;;;;;;;5011685;28;20041;-52
2021/12/21 12:33:39;;;;;;;54.40;6.03;;;;;;;;;;5011240;28;20083;-47
2021/12/21 12:36:07;;;;;;;13.50;2.33;;;;;;;;;;5011316;28;20025;-54
2021/12/21 12:38:42;;;;;;;4.38;1.50;;;;;;;;;;5011153;28;20033;-51
2021/12/21 12:41:12;;;;;;;3.58;0.90;;;;;;;;;;5011855;28;20034;-48
2021/12/21 12:43:44;;;;;;;6.85;1.08;;;;;;;;;;5010885;28;20497;-46
2021/12/21 12:46:22;;;;;;;4.75;1.50;;;;;;;;;;5011407;28;20022;-48
2021/12/21 12:48:49;;;;;;;14.55;1.75;;;;;;;;;;5011009;28;20058;-47
2021/12/21 12:51:26;;;;;;;11.68;1.55;;;;;;;;;;5011339;28;20058;-50
2021/12/21 12:53:53;;;;;;;3.03;0.90;;;;;;;;;;5026304;28;20431;-47
2021/12/21 12:56:21;;;;;;;5.15;1.40;;;;;;;;;;5010323;28;20038;-53
2021/12/21 12:58:49;;;;;;;5.50;1.20;;;;;;;;;;5010949;28;20128;-55
2021/12/21 13:01:23;;;;;;;4.00;1.23;;;;;;;;;;5010893;28;20029;-48
2021/12/21 13:03:50;;;;;;;2.40;0.77;;;;;;;;;;5009811;28;20097;-49
2021/12/21 13:06:22;;;;;;;2.95;1.38;;;;;;;;;;5010195;28;20018;-51
2021/12/21 13:08:50;;;;;;;4.35;0.93;;;;;;;;;;5011133;28;20025;-49
2021/12/21 13:11:21;;;;;;;2.17;1.20;;;;;;;;;;5010203;28;20050;-50
2021/12/21 13:13:53;;;;;;;9.57;1.60;;;;;;;;;;5011059;28;20025;-54
2021/12/21 13:16:20;;;;;;;;;;;;;;;;;;5025377;28;20087;-49
2021/12/21 13:18:50;;;;;;;10.02;1.25;;;;;;;;;;5010775;28;19909;-51
2021/12/21 13:21:54;;;;;;;32.83;3.78;;;;;;;;;;5010473;28;20022;-54
2021/12/21 13:24:43;;;;;;;9.57;2.35;;;;;;;;;;5008740;28;20508;-54
2021/12/21 13:27:12;;;;;;;3.33;1.10;;;;;;;;;;5009539;28;20044;-47
2021/12/21 13:29:39;;;;;;;6.03;1.10;;;;;;;;;;5010713;28;20578;-49
2021/12/21 13:32:11;;;;;;;7.30;1.60;;;;;;;;;;5010014;28;20072;-54
2021/12/21 13:49:58;;;;;;;3.17;1.30;;;;;;;;;;4988981;28;20100;-52
2021/12/21 13:52:26;;;;;;;9.48;2.10;;;;;;;;;;4991843;28;20114;-51
2021/12/21 13:54:53;;;;;;;13.65;2.13;;;;;;;;;;4991599;28;20023;-49
2021/12/21 13:57:21;;;;;;;4.50;1.13;;;;;;;;;;4974173;28;20076;-48
2021/12/21 13:59:52;;;;;;;9.02;2.63;;;;;;;;;;4999265;28;20382;-50
2021/12/21 14:02:26;;;;;;;11.00;1.00;;;;;;;;;;5004286;28;20022;-51
2021/12/21 14:05:00;;;;;;;15.15;3.00;;;;;;;;;;4999301;28;20089;-49
2021/12/21 14:07:32;;;;;;;9.95;1.67;;;;;;;;;;5003897;28;20033;-51
2021/12/21 14:10:25;;;;;;;4.72;1.63;;;;;;;;;;5003250;28;20088;-47
2021/12/21 14:12:56;;;;;;;3.47;1.00;;;;;;;;;;4999782;28;20120;-50
2021/12/21 14:15:23;;;;;;;3.50;1.20;;;;;;;;;;5000456;28;20548;-47
2021/12/21 14:17:50;;;;;;;3.00;1.45;;;;;;;;;;4999350;28;20394;-46
2021/12/21 14:20:19;;;;;;;2.22;0.95;;;;;;;;;;4991784;28;20046;-47
2021/12/21 14:22:46;;;;;;;3.42;1.17;;;;;;;;;;5002585;28;20161;-48
2021/12/21 14:25:20;;;;;;;5.13;1.08;;;;;;;;;;5000996;28;20388;-47
2021/12/21 14:27:47;;;;;;;4.13;0.90;;;;;;;;;;5000732;28;20045;-53
2021/12/21 14:30:17;;;;;;;31.48;4.25;;;;;;;;;;4992047;28;20127;-51
2021/12/21 14:33:08;;;;;;;12.00;2.80;;;;;;;;;;4984949;28;20030;-53
2021/12/21 14:35:39;;;;;;;6.32;1.40;;;;;;;;;;5001325;28;20038;-55
2021/12/21 14:38:16;;;;;;;10.57;1.60;;;;;;;;;;5001741;28;20022;-54
2021/12/21 14:40:45;;;;;;;6.60;1.75;;;;;;;;;;4991551;28;20642;-54
2021/12/21 14:43:19;;;;;;;9.25;2.00;;;;;;;;;;4983217;28;20562;-55
2021/12/21 14:45:47;;;;;;;3.95;1.33;;;;;;;;;;5001053;28;20100;-53
2021/12/21 14:48:18;;;;;;;15.18;2.65;;;;;;;;;;4984226;28;20042;-53
2021/12/21 14:50:50;;;;;;;7.43;1.55;;;;;;;;;;5001550;28;20041;-50
2021/12/21 14:53:20;;;;;;;7.47;1.55;;;;;;;;;;4993044;28;20061;-51
2021/12/21 14:55:48;;;;;;;7.90;1.63;;;;;;;;;;4998958;28;20062;-52
2021/12/21 14:58:19;;;;;;;14.27;2.03;;;;;;;;;;5000214;28;20026;-52
2021/12/21 15:00:54;;;;;;;13.90;2.70;;;;;;;;;;4994475;28;20038;-52
2021/12/21 15:03:22;;;;;;;11.55;2.33;;;;;;;;;;4999092;28;20033;-49
2021/12/21 15:05:49;;;;;;;12.15;1.90;;;;;;;;;;5001773;28;20110;-49
2021/12/21 15:08:17;;;;;;;11.88;2.60;;;;;;;;;;5005754;28;20025;-50
2021/12/21 15:10:45;;;;;;;17.42;2.83;;;;;;;;;;5003649;28;20030;-50
2021/12/21 15:13:14;;;;;;;12.70;2.30;;;;;;;;;;5006853;28;20482;-50
2021/12/21 15:15:41;;;;;;;7.07;2.30;;;;;;;;;;5006086;28;20485;-51
2021/12/21 15:18:09;;;;;;;7.57;1.65;;;;;;;;;;5005840;28;20603;-50
2021/12/21 15:20:37;;;;;;;10.27;2.28;;;;;;;;;;5006916;28;20038;-47
2021/12/21 15:23:04;;;;;;;11.10;1.92;;;;;;;;;;5008460;28;20045;-52
2021/12/21 15:25:32;;;;;;;13.88;3.00;;;;;;;;;;5008324;28;20065;-46
2021/12/21 15:27:59;;;;;;;7.30;1.95;;;;;;;;;;5010456;28;20390;-53
2021/12/21 15:30:27;;;;;;;11.82;3.03;;;;;;;;;;5012738;28;20032;-48
2021/12/21 15:32:54;;;;;;;7.50;1.70;;;;;;;;;;5010767;28;20410;-48
2021/12/21 15:35:22;;;;;;;6.13;1.90;;;;;;;;;;5011807;28;20025;-51
2021/12/21 15:37:50;;;;;;;8.88;1.80;;;;;;;;;;5011949;28;20104;-50
2021/12/21 15:40:18;;;;;;;5.00;1.48;;;;;;;;;;5011984;28;20069;-50
2021/12/21 15:42:46;;;;;;;9.10;1.90;;;;;;;;;;5006143;28;20026;-52
2021/12/21 15:45:14;;;;;;;12.43;1.58;;;;;;;;;;5004407;28;20060;-50
2021/12/21 15:47:42;;;;;;;8.38;1.63;;;;;;;;;;5002840;28;20030;-53
2021/12/21 15:50:09;;;;;;;13.25;2.83;;;;;;;;;;4985393;28;20762;-51
2021/12/21 15:52:37;;;;;;;9.20;2.25;;;;;;;;;;5003380;28;20033;-47
2021/12/21 15:55:07;;;;;;;7.40;2.00;;;;;;;;;;5006735;28;20033;-51
2021/12/21 15:57:34;;;;;;;10.77;1.67;;;;;;;;;;5010881;28;20026;-50
2021/12/21 16:00:04;;;;;;;4.63;1.95;;;;;;;;;;5010572;28;20037;-56
2021/12/21 16:02:31;;;;;;;7.72;1.92;;;;;;;;;;5011115;28;20018;-48
2021/12/21 16:04:59;;;;;;;7.95;2.30;;;;;;;;;;5007428;28;20022;-47
2021/12/21 16:07:27;;;;;;;6.72;2.08;;;;;;;;;;5007355;28;20038;-54
2021/12/21 16:09:55;;;;;;;7.47;1.90;;;;;;;;;;5006994;28;20057;-47
2021/12/21 16:12:22;;;;;;;10.75;1.77;;;;;;;;;;5007737;28;20029;-47
2021/12/21 16:14:49;;;;;;;6.40;1.75;;;;;;;;;;5011785;28;20030;-44
2021/12/21 16:17:16;;;;;;;12.02;2.20;;;;;;;;;;5011552;28;20021;-49